sensor_id;sensor_type;location;lat;lon;timestamp;pressure;altitude;pressure_sealevel;temperature;humidity
74427;BME280;62859;53.906;27.430;2023-03-14T00:03:30;995.6;;;5.8;75.1
74427;BME280;62859;53.906;27.430;2023-03-14T00:09:00;995.5;;;5.8;75.2
74427;BME280;62859;53.906;27.430;2023-03-14T00:14:00;995.5;;;5.8;75.3
74427;BME280;62859;53.906;27.430;2023-03-14T00:18:30;995.3;;;5.9;75.4
74427;BME280;62859;53.906;27.430;2023-03-14T00:24:12;995.4;;;5.9;75
74427;BME280;62859;53.906;27.430;2023-03-14T00:29:10;995.3;;;5.9;74.6
74427;BME280;62859;53.906;27.430;2023-03-14T00:33:41;995.3;;;5.9;74.4
74427;BME280;62859;53.906;27.430;2023-03-14T00:38:58;995.5;;;6;74
74427;BME280;62859;53.906;27.430;2023-03-14T00:44:10;995.2;;;6;73.5
74427;BME280;62859;53.906;27.430;2023-03-14T00:48:41;995.1;;;6.1;73.2
74427;BME280;62859;53.906;27.430;2023-03-14T00:53:31;995;;;6.1;73.1
74427;BME280;62859;53.906;27.430;2023-03-14T00:59:10;995;;;6.2;73.2
74427;BME280;62859;53.906;27.430;2023-03-14T01:04:12;994.9;;;6.2;72.5
74427;BME280;62859;53.906;27.430;2023-03-14T01:08:30;994.9;;;6.2;72.3
74427;BME280;62859;53.906;27.430;2023-03-14T01:13:30;994.9;;;6.3;72
74427;BME280;62859;53.906;27.430;2023-03-14T01:19:12;995;;;6.3;71.8
74427;BME280;62859;53.906;27.430;2023-03-14T01:24:04;994.9;;;6.3;71.6
74427;BME280;62859;53.906;27.430;2023-03-14T01:28:41;994.8;;;6.3;71.7
74427;BME280;62859;53.906;27.430;2023-03-14T01:33:52;994.7;;;6.3;71.8
74427;BME280;62859;53.906;27.430;2023-03-14T01:38:58;994.7;;;6.3;72
74427;BME280;62859;53.906;27.430;2023-03-14T01:43:30;994.6;;;6.3;72.5
74427;BME280;62859;53.906;27.430;2023-03-14T01:48:55;994.6;;;6.2;72.2
74427;BME280;62859;53.906;27.430;2023-03-14T01:54:14;994.6;;;6.2;72.2
74427;BME280;62859;53.906;27.430;2023-03-14T01:58:30;994.6;;;6.2;71.8
74427;BME280;62859;53.906;27.430;2023-03-14T02:04:13;994.6;;;6.2;71.3
74427;BME280;62859;53.906;27.430;2023-03-14T02:08:54;994.6;;;6.2;70.9
74427;BME280;62859;53.906;27.430;2023-03-14T02:13:40;994.6;;;6.1;70.9
74427;BME280;62859;53.906;27.430;2023-03-14T02:18:58;994.6;;;6.1;70.8
74427;BME280;62859;53.906;27.430;2023-03-14T02:24:08;994.6;;;6.2;70.4
74427;BME280;62859;53.906;27.430;2023-03-14T02:28:30;994.6;;;6.3;70.8
74427;BME280;62859;53.906;27.430;2023-03-14T02:33:44;994.7;;;6.2;70.2
74427;BME280;62859;53.906;27.430;2023-03-14T02:39:14;994.7;;;6.2;70.1
74427;BME280;62859;53.906;27.430;2023-03-14T02:43:42;994.6;;;6.2;69.9
74427;BME280;62859;53.906;27.430;2023-03-14T02:49:13;994.7;;;6.2;69.9
74427;BME280;62859;53.906;27.430;2023-03-14T02:54:13;994.7;;;6.2;69.9
74427;BME280;62859;53.906;27.430;2023-03-14T02:59:08;994.7;;;6.2;70.2
74427;BME280;62859;53.906;27.430;2023-03-14T03:03:44;994.8;;;6.1;70.6
74427;BME280;62859;53.906;27.430;2023-03-14T03:08:41;994.8;;;6.1;70.8
74427;BME280;62859;53.906;27.430;2023-03-14T03:13:58;994.9;;;6.1;71.3
74427;BME280;62859;53.906;27.430;2023-03-14T03:18:58;994.9;;;6.2;71.1
74427;BME280;62859;53.906;27.430;2023-03-14T03:23:40;994.9;;;6.2;70.9
74427;BME280;62859;53.906;27.430;2023-03-14T03:29:13;994.9;;;6.2;70.5
74427;BME280;62859;53.906;27.430;2023-03-14T03:34:13;995;;;6.2;69.9
74427;BME280;62859;53.906;27.430;2023-03-14T03:38:30;994.9;;;6.2;69.5
74427;BME280;62859;53.906;27.430;2023-03-14T03:43:42;994.9;;;6.1;69.3
74427;BME280;62859;53.906;27.430;2023-03-14T03:48:59;994.7;;;6.1;69.2
74427;BME280;62859;53.906;27.430;2023-03-14T03:53:44;994.8;;;6.1;69.2
74427;BME280;62859;53.906;27.430;2023-03-14T03:58:44;994.7;;;6.1;68.6
74427;BME280;62859;53.906;27.430;2023-03-14T04:04:05;994.5;;;6.1;68.3
74427;BME280;62859;53.906;27.430;2023-03-14T04:08:41;994.4;;;6.1;67.9
74427;BME280;62859;53.906;27.430;2023-03-14T04:14:12;994.3;;;6.1;67.5
74427;BME280;62859;53.906;27.430;2023-03-14T04:18:53;994.3;;;6.1;67.1
74427;BME280;62859;53.906;27.430;2023-03-14T04:24:13;994.3;;;6.1;66.7
74427;BME280;62859;53.906;27.430;2023-03-14T04:28:45;994.4;;;6.2;66.4
74427;BME280;62859;53.906;27.430;2023-03-14T04:33:30;994.4;;;6.2;66
74427;BME280;62859;53.906;27.430;2023-03-14T04:38:53;994.4;;;6.3;65.9
74427;BME280;62859;53.906;27.430;2023-03-14T04:43:39;994.1;;;6.3;65.7
74427;BME280;62859;53.906;27.430;2023-03-14T04:48:41;993.9;;;6.3;65.4
74427;BME280;62859;53.906;27.430;2023-03-14T04:53:53;993.9;;;6.2;65.2
74427;BME280;62859;53.906;27.430;2023-03-14T04:59:11;993.9;;;6.2;65
74427;BME280;62859;53.906;27.430;2023-03-14T05:03:43;993.9;;;6.2;64.8
74427;BME280;62859;53.906;27.430;2023-03-14T05:09:11;994;;;6.2;64.6
74427;BME280;62859;53.906;27.430;2023-03-14T05:13:55;994.1;;;6.3;64.3
74427;BME280;62859;53.906;27.430;2023-03-14T05:18:41;994.1;;;6.4;63.8
74427;BME280;62859;53.906;27.430;2023-03-14T05:23:59;994.1;;;6.4;63.8
74427;BME280;62859;53.906;27.430;2023-03-14T05:29:07;994;;;6.5;63.7
74427;BME280;62859;53.906;27.430;2023-03-14T05:33:39;993.9;;;6.6;63
74427;BME280;62859;53.906;27.430;2023-03-14T05:38:57;993.9;;;6.6;62.8
74427;BME280;62859;53.906;27.430;2023-03-14T05:44:11;993.9;;;6.7;62.5
74427;BME280;62859;53.906;27.430;2023-03-14T05:49:07;994;;;6.8;62.1
74427;BME280;62859;53.906;27.430;2023-03-14T05:54:11;994.1;;;6.8;61.9
74427;BME280;62859;53.906;27.430;2023-03-14T05:59:13;994.1;;;6.8;61.9
74427;BME280;62859;53.906;27.430;2023-03-14T06:04:05;994.3;;;6.9;61.5
74427;BME280;62859;53.906;27.430;2023-03-14T06:08:55;994.4;;;7;61.5
74427;BME280;62859;53.906;27.430;2023-03-14T06:13:31;994.4;;;7.1;61.3
74427;BME280;62859;53.906;27.430;2023-03-14T06:18:59;994.4;;;7.1;60.9
74427;BME280;62859;53.906;27.430;2023-03-14T06:23:59;994.4;;;7.1;60.8
74427;BME280;62859;53.906;27.430;2023-03-14T06:28:31;994.6;;;7.1;60.5
74427;BME280;62859;53.906;27.430;2023-03-14T06:34:13;994.6;;;7.1;60.3
74427;BME280;62859;53.906;27.430;2023-03-14T06:39:11;994.5;;;7.2;60.2
74427;BME280;62859;53.906;27.430;2023-03-14T06:43:41;994.4;;;7.5;59.8
74427;BME280;62859;53.906;27.430;2023-03-14T06:48:41;994.5;;;7.6;58.6
74427;BME280;62859;53.906;27.430;2023-03-14T06:53:59;994.6;;;7.6;58.8
74427;BME280;62859;53.906;27.430;2023-03-14T06:58:31;994.6;;;7.5;58.9
74427;BME280;62859;53.906;27.430;2023-03-14T07:03:43;994.4;;;7.4;58.8
74427;BME280;62859;53.906;27.430;2023-03-14T07:08:55;994.4;;;7.4;58.8
74427;BME280;62859;53.906;27.430;2023-03-14T07:13:35;994.3;;;7.4;58.9
74427;BME280;62859;53.906;27.430;2023-03-14T07:19:13;994.4;;;7.4;58.8
74427;BME280;62859;53.906;27.430;2023-03-14T07:23:41;994.3;;;7.4;58.7
74427;BME280;62859;53.906;27.430;2023-03-14T07:29:13;994.1;;;7.5;58.3
74427;BME280;62859;53.906;27.430;2023-03-14T07:33:59;994;;;7.6;58.4
74427;BME280;62859;53.906;27.430;2023-03-14T07:39:13;994.1;;;7.8;58
74427;BME280;62859;53.906;27.430;2023-03-14T07:43:41;994;;;8;57.5
74427;BME280;62859;53.906;27.430;2023-03-14T07:48:59;993.9;;;8.2;56.8
74427;BME280;62859;53.906;27.430;2023-03-14T07:53:31;993.8;;;8.2;56.2
74427;BME280;62859;53.906;27.430;2023-03-14T07:58:41;993.8;;;8.3;56
74427;BME280;62859;53.906;27.430;2023-03-14T08:03:59;993.8;;;8.5;55.9
74427;BME280;62859;53.906;27.430;2023-03-14T08:08:41;993.6;;;8.8;55.4
74427;BME280;62859;53.906;27.430;2023-03-14T08:14:13;993.7;;;9.1;54.5
74427;BME280;62859;53.906;27.430;2023-03-14T08:19:07;993.7;;;9.5;53.3
74427;BME280;62859;53.906;27.430;2023-03-14T08:23:43;993.8;;;9.8;53.4
74427;BME280;62859;53.906;27.430;2023-03-14T08:28:58;993.9;;;10.2;52.3
74427;BME280;62859;53.906;27.430;2023-03-14T08:33:51;993.9;;;10.4;51.7
74427;BME280;62859;53.906;27.430;2023-03-14T08:38:57;993.9;;;10.5;51.3
74427;BME280;62859;53.906;27.430;2023-03-14T08:43:49;993.8;;;10.7;50.5
74427;BME280;62859;53.906;27.430;2023-03-14T08:49:09;993.8;;;10.9;50.2
74427;BME280;62859;53.906;27.430;2023-03-14T08:53:51;993.7;;;11;49.9
74427;BME280;62859;53.906;27.430;2023-03-14T08:59:13;993.6;;;11.5;48.5
74427;BME280;62859;53.906;27.430;2023-03-14T09:04:13;993.5;;;12;47.8
74427;BME280;62859;53.906;27.430;2023-03-14T09:09:07;993.6;;;12.4;47.4
74427;BME280;62859;53.906;27.430;2023-03-14T09:13:45;993.7;;;12.7;46
74427;BME280;62859;53.906;27.430;2023-03-14T09:18:31;993.7;;;12.8;45.2
74427;BME280;62859;53.906;27.430;2023-03-14T09:23:59;993.7;;;12.7;45.1
74427;BME280;62859;53.906;27.430;2023-03-14T09:28:59;993.8;;;12.5;44.9
74427;BME280;62859;53.906;27.430;2023-03-14T09:33:53;993.8;;;12.5;44.9
74427;BME280;62859;53.906;27.430;2023-03-14T09:39:01;993.7;;;12.3;44.8
74427;BME280;62859;53.906;27.430;2023-03-14T09:44:13;993.6;;;11.9;45.6
74427;BME280;62859;53.906;27.430;2023-03-14T09:48:41;993.5;;;11.6;46.5
74427;BME280;62859;53.906;27.430;2023-03-14T09:53:33;993.3;;;11.5;47.7
74427;BME280;62859;53.906;27.430;2023-03-14T09:59:13;993.5;;;11.4;48.2
74427;BME280;62859;53.906;27.430;2023-03-14T10:03:32;993.5;;;11.7;47.7
74427;BME280;62859;53.906;27.430;2023-03-14T10:09:08;993.4;;;11.6;47.8
74427;BME280;62859;53.906;27.430;2023-03-14T10:14:07;993.5;;;11.2;48.3
74427;BME280;62859;53.906;27.430;2023-03-14T10:18:31;993.4;;;11.1;48.4
74427;BME280;62859;53.906;27.430;2023-03-14T10:24:18;993.4;;;11.4;47.9
74427;BME280;62859;53.906;27.430;2023-03-14T10:28:54;993.4;;;11.3;47.7
74427;BME280;62859;53.906;27.430;2023-03-14T10:34:15;993.3;;;11.2;47.7
74427;BME280;62859;53.906;27.430;2023-03-14T10:39:15;993.2;;;11.2;47.9
74427;BME280;62859;53.906;27.430;2023-03-14T10:44:13;993.2;;;11.2;47.8
74427;BME280;62859;53.906;27.430;2023-03-14T10:48:53;993.1;;;11.1;47.9
74427;BME280;62859;53.906;27.430;2023-03-14T10:53:59;993;;;11.1;47.8
74427;BME280;62859;53.906;27.430;2023-03-14T10:58:45;993.1;;;11.1;47.9
74427;BME280;62859;53.906;27.430;2023-03-14T11:04:11;993.1;;;11.2;47.7
74427;BME280;62859;53.906;27.430;2023-03-14T11:08:42;993;;;11.3;47.6
74427;BME280;62859;53.906;27.430;2023-03-14T11:13:43;992.9;;;11.6;47.5
74427;BME280;62859;53.906;27.430;2023-03-14T11:19:44;992.8;;;12.1;46.9
74427;BME280;62859;53.906;27.430;2023-03-14T11:23:41;992.7;;;12.2;46.4
74427;BME280;62859;53.906;27.430;2023-03-14T11:28:33;992.6;;;12.3;46.4
74427;BME280;62859;53.906;27.430;2023-03-14T11:34:13;992.6;;;13.2;44.8
74427;BME280;62859;53.906;27.430;2023-03-14T11:38:33;992.4;;;13.8;43.2
74427;BME280;62859;53.906;27.430;2023-03-14T11:43:32;992.4;;;14.5;42.2
74427;BME280;62859;53.906;27.430;2023-03-14T11:49:00;992.2;;;15.3;40.7
74427;BME280;62859;53.906;27.430;2023-03-14T11:53:57;992.1;;;16.2;39.1
74427;BME280;62859;53.906;27.430;2023-03-14T11:58:31;992;;;16.9;37.6
74427;BME280;62859;53.906;27.430;2023-03-14T12:04:00;992;;;17.1;37.3
74427;BME280;62859;53.906;27.430;2023-03-14T12:09:13;991.9;;;17.1;37.1
74427;BME280;62859;53.906;27.430;2023-03-14T12:14:17;991.9;;;17.1;36.9
74427;BME280;62859;53.906;27.430;2023-03-14T12:18:32;991.8;;;17.1;36.8
74427;BME280;62859;53.906;27.430;2023-03-14T12:23:42;991.8;;;17.2;36.4
74427;BME280;62859;53.906;27.430;2023-03-14T12:29:11;991.8;;;17.5;35.7
74427;BME280;62859;53.906;27.430;2023-03-14T12:34:00;991.8;;;17.7;35.1
74427;BME280;62859;53.906;27.430;2023-03-14T12:38:43;991.6;;;17.9;34.9
74427;BME280;62859;53.906;27.430;2023-03-14T12:44:37;991.5;;;18.1;34.5
74427;BME280;62859;53.906;27.430;2023-03-14T12:49:09;991.5;;;18.1;35
74427;BME280;62859;53.906;27.430;2023-03-14T12:53:52;991.5;;;18.2;35.2
74427;BME280;62859;53.906;27.430;2023-03-14T12:59:01;991.5;;;18.3;34.4
74427;BME280;62859;53.906;27.430;2023-03-14T13:03:55;991.4;;;18.2;34.5
74427;BME280;62859;53.906;27.430;2023-03-14T13:08:33;991.2;;;18.5;33.9
74427;BME280;62859;53.906;27.430;2023-03-14T13:13:45;991;;;18.5;34
74427;BME280;62859;53.906;27.430;2023-03-14T13:19:09;990.9;;;18.5;33.8
74427;BME280;62859;53.906;27.430;2023-03-14T13:23:32;991;;;18.2;34
74427;BME280;62859;53.906;27.430;2023-03-14T13:29:15;990.9;;;17.3;35.2
74427;BME280;62859;53.906;27.430;2023-03-14T13:33:59;990.8;;;16.6;36.6
74427;BME280;62859;53.906;27.430;2023-03-14T13:39:13;990.7;;;16.1;37.5
74427;BME280;62859;53.906;27.430;2023-03-14T13:44:01;990.7;;;15.7;38.3
74427;BME280;62859;53.906;27.430;2023-03-14T13:49:16;990.6;;;15.5;38.7
74427;BME280;62859;53.906;27.430;2023-03-14T13:54:13;990.5;;;15.3;39.3
74427;BME280;62859;53.906;27.430;2023-03-14T13:58:59;990.6;;;15;39.7
74427;BME280;62859;53.906;27.430;2023-03-14T14:03:39;990.7;;;14.8;40.2
74427;BME280;62859;53.906;27.430;2023-03-14T14:09:10;990.6;;;14.5;40.7
74427;BME280;62859;53.906;27.430;2023-03-14T14:13:32;990.5;;;14.2;41.3
74427;BME280;62859;53.906;27.430;2023-03-14T14:18:41;990.7;;;14.1;41.4
74427;BME280;62859;53.906;27.430;2023-03-14T14:24:13;990.6;;;14;41.7
74427;BME280;62859;53.906;27.430;2023-03-14T14:29:01;990.6;;;13.8;42.1
74427;BME280;62859;53.906;27.430;2023-03-14T14:33:41;990.7;;;13.6;42.2
74427;BME280;62859;53.906;27.430;2023-03-14T14:39:15;990.7;;;13.5;42.3
74427;BME280;62859;53.906;27.430;2023-03-14T14:43:52;990.7;;;13.4;42.3
74427;BME280;62859;53.906;27.430;2023-03-14T14:48:31;990.7;;;13.3;42.5
74427;BME280;62859;53.906;27.430;2023-03-14T14:54:03;990.7;;;13.2;42.7
74427;BME280;62859;53.906;27.430;2023-03-14T14:59:18;990.7;;;13.1;42.8
74427;BME280;62859;53.906;27.430;2023-03-14T15:03:31;990.6;;;13.1;42.9
74427;BME280;62859;53.906;27.430;2023-03-14T15:08:45;990.6;;;13.1;43
74427;BME280;62859;53.906;27.430;2023-03-14T15:14:13;990.5;;;13;43.1
74427;BME280;62859;53.906;27.430;2023-03-14T15:19:15;990.4;;;13;43.2
74427;BME280;62859;53.906;27.430;2023-03-14T15:23:45;990.5;;;12.9;43.3
74427;BME280;62859;53.906;27.430;2023-03-14T15:28:41;990.5;;;12.9;43.3
74427;BME280;62859;53.906;27.430;2023-03-14T15:34:13;990.5;;;12.9;43.5
74427;BME280;62859;53.906;27.430;2023-03-14T15:38:57;990.5;;;12.9;43.3
74427;BME280;62859;53.906;27.430;2023-03-14T15:43:31;990.5;;;12.9;43.5
74427;BME280;62859;53.906;27.430;2023-03-14T15:48:53;990.5;;;12.9;43.6
74427;BME280;62859;53.906;27.430;2023-03-14T15:53:59;990.5;;;12.9;43.5
74427;BME280;62859;53.906;27.430;2023-03-14T15:58:31;990.6;;;12.8;43.7
74427;BME280;62859;53.906;27.430;2023-03-14T16:03:41;990.6;;;12.7;44.1
74427;BME280;62859;53.906;27.430;2023-03-14T16:09:13;990.6;;;12.6;44.1
74427;BME280;62859;53.906;27.430;2023-03-14T16:13:31;990.7;;;12.5;44.2
74427;BME280;62859;53.906;27.430;2023-03-14T16:19:07;990.7;;;12.5;44.2
74427;BME280;62859;53.906;27.430;2023-03-14T16:24:07;990.9;;;12.4;44.3
74427;BME280;62859;53.906;27.430;2023-03-14T16:29:07;990.9;;;12.4;44.2
74427;BME280;62859;53.906;27.430;2023-03-14T16:34:11;990.9;;;12.4;44.3
74427;BME280;62859;53.906;27.430;2023-03-14T16:38:31;990.8;;;12.3;44.5
74427;BME280;62859;53.906;27.430;2023-03-14T16:44:15;990.8;;;12.3;44.7
74427;BME280;62859;53.906;27.430;2023-03-14T16:49:01;990.9;;;12.2;44.9
74427;BME280;62859;53.906;27.430;2023-03-14T16:54:15;990.9;;;12.1;45
74427;BME280;62859;53.906;27.430;2023-03-14T16:58:53;991;;;12.1;45
74427;BME280;62859;53.906;27.430;2023-03-14T17:04:01;990.9;;;12.1;45.1
74427;BME280;62859;53.906;27.430;2023-03-14T17:08:31;990.9;;;12;45.2
74427;BME280;62859;53.906;27.430;2023-03-14T17:14:07;990.9;;;12;45.3
74427;BME280;62859;53.906;27.430;2023-03-14T17:18:47;990.9;;;11.9;45.4
74427;BME280;62859;53.906;27.430;2023-03-14T17:23:37;990.8;;;11.8;45.3
74427;BME280;62859;53.906;27.430;2023-03-14T17:29:15;990.8;;;11.7;45.6
74427;BME280;62859;53.906;27.430;2023-03-14T17:33:53;990.7;;;11.6;45.7
74427;BME280;62859;53.906;27.430;2023-03-14T17:38:53;990.8;;;11.6;45.8
74427;BME280;62859;53.906;27.430;2023-03-14T17:44:15;990.8;;;11.5;46.2
74427;BME280;62859;53.906;27.430;2023-03-14T17:48:53;990.8;;;11.5;46.3
74427;BME280;62859;53.906;27.430;2023-03-14T17:53:31;990.8;;;11.4;46.5
74427;BME280;62859;53.906;27.430;2023-03-14T17:59:01;990.8;;;11.4;46.6
74427;BME280;62859;53.906;27.430;2023-03-14T18:04:13;990.8;;;11.4;46.7
74427;BME280;62859;53.906;27.430;2023-03-14T18:08:51;990.8;;;11.3;46.9
74427;BME280;62859;53.906;27.430;2023-03-14T18:13:41;990.9;;;11.3;47
74427;BME280;62859;53.906;27.430;2023-03-14T18:19:15;990.8;;;11.2;47.1
74427;BME280;62859;53.906;27.430;2023-03-14T18:24:13;990.7;;;11.2;47.1
74427;BME280;62859;53.906;27.430;2023-03-14T18:28:45;990.9;;;11.1;47.3
74427;BME280;62859;53.906;27.430;2023-03-14T18:34:03;990.8;;;11.1;47.4
74427;BME280;62859;53.906;27.430;2023-03-14T18:39:13;990.8;;;11.1;47.5
74427;BME280;62859;53.906;27.430;2023-03-14T18:43:39;990.8;;;11.1;47.5
74427;BME280;62859;53.906;27.430;2023-03-14T18:48:39;990.9;;;11;47.7
74427;BME280;62859;53.906;27.430;2023-03-14T18:53:51;990.8;;;10.9;48
74427;BME280;62859;53.906;27.430;2023-03-14T18:58:59;990.9;;;10.9;48.1
74427;BME280;62859;53.906;27.430;2023-03-14T19:03:39;990.8;;;10.9;48.2
74427;BME280;62859;53.906;27.430;2023-03-14T19:08:51;990.9;;;10.9;48.2
74427;BME280;62859;53.906;27.430;2023-03-14T19:14:13;990.9;;;10.9;48.2
74427;BME280;62859;53.906;27.430;2023-03-14T19:18:31;991;;;10.8;48.5
74427;BME280;62859;53.906;27.430;2023-03-14T19:24:15;990.9;;;10.8;48.5
74427;BME280;62859;53.906;27.430;2023-03-14T19:29:05;991;;;10.8;48.5
74427;BME280;62859;53.906;27.430;2023-03-14T19:33:51;991.2;;;10.7;48.5
74427;BME280;62859;53.906;27.430;2023-03-14T19:38:59;991.2;;;10.7;48.5
74427;BME280;62859;53.906;27.430;2023-03-14T19:44:03;991.1;;;10.7;48.6
74427;BME280;62859;53.906;27.430;2023-03-14T19:48:31;991.2;;;10.7;48.7
74427;BME280;62859;53.906;27.430;2023-03-14T19:53:59;991.3;;;10.6;48.8
74427;BME280;62859;53.906;27.430;2023-03-14T19:59:13;991.2;;;10.6;48.8
74427;BME280;62859;53.906;27.430;2023-03-14T20:03:51;991.3;;;10.6;48.8
74427;BME280;62859;53.906;27.430;2023-03-14T20:09:13;991.3;;;10.7;48.7
74427;BME280;62859;53.906;27.430;2023-03-14T20:14:11;991.2;;;10.7;48.7
74427;BME280;62859;53.906;27.430;2023-03-14T20:19:05;991.3;;;10.7;48.7
74427;BME280;62859;53.906;27.430;2023-03-14T20:23:31;991.1;;;10.7;48.8
74427;BME280;62859;53.906;27.430;2023-03-14T20:28:31;991.2;;;10.7;48.8
74427;BME280;62859;53.906;27.430;2023-03-14T20:33:33;991.3;;;10.7;48.9
74427;BME280;62859;53.906;27.430;2023-03-14T20:38:59;991.4;;;10.7;49.1
74427;BME280;62859;53.906;27.430;2023-03-14T20:43:31;991.2;;;10.7;49.1
74427;BME280;62859;53.906;27.430;2023-03-14T20:49:13;991.3;;;10.7;49.2
74427;BME280;62859;53.906;27.430;2023-03-14T20:53:51;991.2;;;10.7;49.3
74427;BME280;62859;53.906;27.430;2023-03-14T20:58:39;991.3;;;10.6;49.4
74427;BME280;62859;53.906;27.430;2023-03-14T21:03:39;991.3;;;10.6;49.5
74427;BME280;62859;53.906;27.430;2023-03-14T21:09:13;991.3;;;10.5;49.7
74427;BME280;62859;53.906;27.430;2023-03-14T21:13:31;991.2;;;10.5;49.9
74427;BME280;62859;53.906;27.430;2023-03-14T21:18:31;991.2;;;10.4;50.1
74427;BME280;62859;53.906;27.430;2023-03-14T21:24:11;991.3;;;10.4;50.2
74427;BME280;62859;53.906;27.430;2023-03-14T21:28:59;991.3;;;10.3;50.4
74427;BME280;62859;53.906;27.430;2023-03-14T21:33:35;991.4;;;10.3;50.5
74427;BME280;62859;53.906;27.430;2023-03-14T21:38:51;991.5;;;10.3;50.6
74427;BME280;62859;53.906;27.430;2023-03-14T21:44:13;991.5;;;10.2;50.9
74427;BME280;62859;53.906;27.430;2023-03-14T21:48:59;991.5;;;10.2;51
74427;BME280;62859;53.906;27.430;2023-03-14T21:53:39;991.5;;;10.2;51
74427;BME280;62859;53.906;27.430;2023-03-14T21:58:31;991.6;;;10.1;51.1
74427;BME280;62859;53.906;27.430;2023-03-14T22:03:59;991.7;;;10.1;51.2
74427;BME280;62859;53.906;27.430;2023-03-14T22:08:31;991.8;;;10;51.3
74427;BME280;62859;53.906;27.430;2023-03-14T22:13:52;991.8;;;10;51.4
74427;BME280;62859;53.906;27.430;2023-03-14T22:19:13;991.8;;;10;51.4
74427;BME280;62859;53.906;27.430;2023-03-14T22:23:31;991.8;;;10;51.4
74427;BME280;62859;53.906;27.430;2023-03-14T22:29:13;991.8;;;10;51.4
74427;BME280;62859;53.906;27.430;2023-03-14T22:33:33;991.8;;;10;51.4
74427;BME280;62859;53.906;27.430;2023-03-14T22:38:43;991.9;;;10;51.4
74427;BME280;62859;53.906;27.430;2023-03-14T22:43:39;991.8;;;10;51.4
74427;BME280;62859;53.906;27.430;2023-03-14T22:48:31;991.9;;;10;51.4
74427;BME280;62859;53.906;27.430;2023-03-14T22:53:31;991.9;;;10.1;51.3
74427;BME280;62859;53.906;27.430;2023-03-14T22:58:59;992;;;10;51.4
74427;BME280;62859;53.906;27.430;2023-03-14T23:04:11;992.1;;;10.1;51.4
74427;BME280;62859;53.906;27.430;2023-03-14T23:08:51;992;;;10.1;51.3
74427;BME280;62859;53.906;27.430;2023-03-14T23:14:13;992;;;10.2;51.1
74427;BME280;62859;53.906;27.430;2023-03-14T23:18:33;991.9;;;10.2;51.1
74427;BME280;62859;53.906;27.430;2023-03-14T23:24:05;992;;;10.1;51.1
74427;BME280;62859;53.906;27.430;2023-03-14T23:28:31;992.1;;;10.1;51.3
74427;BME280;62859;53.906;27.430;2023-03-14T23:33:37;992.2;;;10;51.3
74427;BME280;62859;53.906;27.430;2023-03-14T23:38:59;992.2;;;10.1;51.3
74427;BME280;62859;53.906;27.430;2023-03-14T23:43:59;992.2;;;10;51.5
74427;BME280;62859;53.906;27.430;2023-03-14T23:48:39;992.2;;;10;51.6
74427;BME280;62859;53.906;27.430;2023-03-14T23:54:13;992.2;;;10.1;51.5
74427;BME280;62859;53.906;27.430;2023-03-14T23:59:13;992.2;;;10.1;51.4
